Time;durP1;ratioP1;P1;durP2;ratioP2;P2;SDS_P1;SDS_P2;PMS_P1;PMS_P2;Temp;Humidity;BMP_temperature;BMP_pressure;BME280_temperature;BME280_humidity;BME280_pressure;Samples;Min_cycle;Max_cycle;Signal;HPM_P1;HPM_P2
2022/06/17 00:01:50;;;;;;;7.25;4.18;;;17.70;99.90;;;;;;5036832;28;20049;-59
2022/06/17 00:04:17;;;;;;;9.55;5.25;;;17.70;99.90;;;;;;5037472;28;20045;-59
2022/06/17 00:06:49;;;;;;;6.97;4.75;;;17.70;99.90;;;;;;5036312;28;20123;-59
2022/06/17 00:09:18;;;;;;;5.70;4.32;;;17.70;99.90;;;;;;5036949;28;20361;-59
2022/06/17 00:11:45;;;;;;;5.65;4.78;;;17.70;99.90;;;;;;5037880;28;20665;-58
2022/06/17 00:14:16;;;;;;;8.77;5.60;;;17.70;99.90;;;;;;5037034;28;20511;-59
2022/06/17 00:16:44;;;;;;;7.15;4.65;;;17.70;99.90;;;;;;5037787;28;20037;-58
2022/06/17 00:19:12;;;;;;;6.40;4.60;;;17.60;99.90;;;;;;5036738;28;20071;-58
2022/06/17 00:21:42;;;;;;;8.38;5.03;;;17.60;99.90;;;;;;5037116;28;20616;-59
2022/06/17 00:24:20;;;;;;;9.05;5.53;;;17.60;99.90;;;;;;5037466;28;20060;-58
2022/06/17 00:26:47;;;;;;;;;;;17.60;99.90;;;;;;5038041;28;20048;-58
2022/06/17 00:29:16;;;;;;;7.23;4.97;;;17.50;99.90;;;;;;5035613;28;19924;-58
2022/06/17 00:31:43;;;;;;;13.20;6.05;;;17.50;99.90;;;;;;5035197;28;20159;-59
2022/06/17 00:34:10;;;;;;;10.68;5.28;;;17.50;99.90;;;;;;5037293;28;20049;-59
2022/06/17 00:36:37;;;;;;;7.72;5.03;;;17.40;99.90;;;;;;5035464;28;20430;-58
2022/06/17 00:39:18;;;;;;;6.30;5.57;;;17.40;99.90;;;;;;5018073;28;20106;-58
2022/06/17 00:41:49;;;;;;;6.32;4.35;;;17.40;99.90;;;;;;5032474;28;20441;-58
2022/06/17 00:44:43;;;;;;;5.18;4.68;;;17.40;99.90;;;;;;5034035;28;20799;-57
2022/06/17 00:47:26;;;;;;;14.23;5.70;;;17.40;99.90;;;;;;5035471;28;20045;-58
2022/06/17 00:50:05;;;;;;;8.27;5.03;;;17.40;99.90;;;;;;5036749;28;20625;-59
2022/06/17 00:52:41;;;;;;;9.32;5.63;;;17.40;99.90;;;;;;5037027;28;20044;-56
2022/06/17 00:55:24;;;;;;;7.43;5.20;;;17.40;99.90;;;;;;5037010;28;20045;-59
2022/06/17 00:57:51;;;;;;;8.80;5.70;;;17.40;99.90;;;;;;5035919;28;20068;-58
2022/06/17 01:00:24;;;;;;;6.80;5.40;;;17.30;99.90;;;;;;5034466;28;20505;-57
2022/06/17 01:02:59;;;;;;;8.35;4.63;;;17.30;99.90;;;;;;5036246;28;20072;-59
2022/06/17 01:05:45;;;;;;;8.10;4.95;;;17.30;99.90;;;;;;5036997;28;20048;-58
2022/06/17 01:11:10;;;;;;;8.55;5.60;;;17.20;99.90;;;;;;5034517;28;20661;-59
2022/06/17 01:13:38;;;;;;;8.20;4.82;;;17.10;99.90;;;;;;5036038;28;20054;-59
2022/06/17 01:16:06;;;;;;;10.60;4.63;;;17.10;99.90;;;;;;5034522;28;20041;-60
2022/06/17 01:18:39;;;;;;;10.00;4.88;;;17.00;99.90;;;;;;5034547;28;20045;-59
2022/06/17 01:21:33;;;;;;;9.30;5.15;;;17.00;99.90;;;;;;5036153;28;20049;-59
2022/06/17 01:24:00;;;;;;;9.07;6.13;;;17.00;99.90;;;;;;5036496;28;20414;-57
2022/06/17 01:26:27;;;;;;;9.70;5.40;;;17.00;99.90;;;;;;5017661;28;20575;-56
2022/06/17 01:28:54;;;;;;;10.15;5.90;;;17.00;99.90;;;;;;5035485;28;20044;-59
2022/06/17 01:31:22;;;;;;;8.02;5.32;;;16.90;99.90;;;;;;5035347;28;20122;-58
2022/06/17 01:33:49;;;;;;;5.60;4.97;;;16.90;99.90;;;;;;5033880;28;20041;-58
2022/06/17 01:36:26;;;;;;;13.65;5.63;;;16.80;99.90;;;;;;5034135;28;20040;-56
2022/06/17 01:38:55;;;;;;;9.95;6.10;;;16.70;99.90;;;;;;5035150;28;20060;-59
2022/06/17 01:41:29;;;;;;;10.18;5.72;;;16.70;99.90;;;;;;5029906;28;20041;-58
2022/06/17 01:44:00;;;;;;;7.80;5.43;;;16.60;99.90;;;;;;5033228;28;20041;-58
2022/06/17 01:46:39;;;;;;;10.00;5.03;;;16.50;99.90;;;;;;5033735;28;20049;-58
2022/06/17 01:49:19;;;;;;;7.85;4.85;;;16.40;99.90;;;;;;5033636;28;20051;-59
2022/06/17 01:52:07;;;;;;;6.97;5.00;;;16.40;99.90;;;;;;5035413;28;20048;-59
2022/06/17 01:54:46;;;;;;;10.07;5.57;;;16.40;99.90;;;;;;5033837;28;20163;-59
2022/06/17 01:57:18;;;;;;;10.40;6.05;;;16.40;99.90;;;;;;5033879;28;20450;-57
2022/06/17 01:59:55;;;;;;;10.10;6.30;;;16.40;99.90;;;;;;5033188;28;20049;-58
2022/06/17 02:02:29;;;;;;;14.65;6.18;;;16.30;99.90;;;;;;5033920;28;20052;-58
2022/06/17 02:05:05;;;;;;;7.90;5.60;;;16.30;99.90;;;;;;5035046;28;20053;-58
2022/06/17 02:07:48;;;;;;;8.88;5.65;;;16.20;99.90;;;;;;5034224;28;20083;-58
2022/06/17 02:10:15;;;;;;;6.95;5.15;;;16.20;99.90;;;;;;5032522;28;20052;-59
2022/06/17 02:12:44;;;;;;;10.77;5.40;;;16.10;99.90;;;;;;5033869;28;20079;-59
2022/06/17 02:15:12;;;;;;;9.50;5.30;;;16.10;99.90;;;;;;5032960;28;20044;-59
2022/06/17 02:17:47;;;;;;;7.20;5.57;;;16.10;99.90;;;;;;5035019;28;20049;-59
2022/06/17 02:20:27;;;;;;;16.10;6.03;;;16.10;99.90;;;;;;5034578;28;20044;-59
2022/06/17 02:23:02;;;;;;;11.13;6.30;;;16.00;99.90;;;;;;5035479;28;20041;-59
2022/06/17 02:25:35;;;;;;;9.10;6.35;;;15.90;99.90;;;;;;5033375;28;20380;-58
2022/06/17 02:28:03;;;;;;;9.68;6.20;;;15.90;99.90;;;;;;5033296;28;20055;-56
2022/06/17 02:30:30;;;;;;;9.50;5.30;;;15.90;99.90;;;;;;5033422;28;20045;-58
2022/06/17 02:33:03;;;;;;;11.80;6.57;;;15.80;99.90;;;;;;5033162;28;20072;-59
2022/06/17 02:35:39;;;;;;;6.38;4.90;;;15.80;99.90;;;;;;5018075;28;20049;-58
2022/06/17 02:38:06;;;;;;;8.85;6.32;;;15.70;99.90;;;;;;5033144;28;20045;-58
2022/06/17 02:40:40;;;;;;;19.00;6.90;;;15.70;99.90;;;;;;5033149;28;20136;-57
2022/06/17 02:43:13;;;;;;;6.13;5.35;;;15.70;99.90;;;;;;5029623;28;20301;-59
2022/06/17 02:45:45;;;;;;;14.65;6.53;;;15.60;99.90;;;;;;5032548;28;20135;-58
2022/06/17 02:48:25;;;;;;;10.10;6.05;;;15.60;99.90;;;;;;5032800;28;20049;-59
2022/06/17 02:50:55;;;;;;;9.25;5.97;;;15.60;99.90;;;;;;5032698;28;20102;-59
2022/06/17 02:53:31;;;;;;;7.82;5.30;;;15.50;99.90;;;;;;5032983;28;20685;-59
2022/06/17 02:56:00;;;;;;;10.25;6.32;;;15.60;99.90;;;;;;5033190;28;20056;-58
2022/06/17 02:58:48;;;;;;;8.90;5.78;;;15.60;99.90;;;;;;5032353;28;20044;-58
2022/06/17 03:01:25;;;;;;;5.68;5.10;;;15.50;99.90;;;;;;5032377;28;20705;-58
2022/06/17 03:04:21;;;;;;;6.78;5.25;;;15.50;99.90;;;;;;5031824;28;20047;-58
2022/06/17 03:06:52;;;;;;;10.18;5.85;;;15.50;99.90;;;;;;5033282;28;20076;-59
2022/06/17 03:09:25;;;;;;;6.18;5.28;;;15.50;99.90;;;;;;5032836;28;20123;-58
2022/06/17 03:12:07;;;;;;;8.93;6.03;;;15.50;99.90;;;;;;5032715;28;20132;-57
2022/06/17 03:14:39;;;;;;;6.95;5.60;;;15.50;99.90;;;;;;5033405;28;20133;-58
2022/06/17 03:17:11;;;;;;;11.95;5.65;;;15.50;99.90;;;;;;5033368;28;20040;-58
2022/06/17 03:19:40;;;;;;;8.48;5.97;;;15.50;99.90;;;;;;5032924;28;20204;-58
2022/06/17 03:22:11;;;;;;;8.75;6.13;;;15.50;99.90;;;;;;5033930;28;20114;-59
2022/06/17 03:24:58;;;;;;;15.50;6.25;;;15.40;99.90;;;;;;5016966;28;20072;-59
2022/06/17 03:27:50;;;;;;;10.18;5.75;;;15.50;99.90;;;;;;5032186;28;20898;-59
2022/06/17 03:30:30;;;;;;;6.65;5.82;;;15.40;99.90;;;;;;5032526;28;20144;-60
2022/06/17 03:33:32;;;;;;;8.30;5.95;;;15.50;99.90;;;;;;5032717;28;20049;-54
2022/06/17 03:36:04;;;;;;;6.78;5.80;;;15.50;99.90;;;;;;5033691;28;20102;-53
2022/06/17 03:38:45;;;;;;;6.22;5.35;;;15.50;99.90;;;;;;5032414;28;20045;-53
2022/06/17 03:41:18;;;;;;;9.23;5.57;;;15.60;99.90;;;;;;5033160;28;20108;-53
2022/06/17 03:43:51;;;;;;;6.82;5.60;;;15.60;99.90;;;;;;5029902;28;20053;-53
2022/06/17 03:46:22;;;;;;;7.65;5.80;;;15.60;99.90;;;;;;5013109;28;20045;-53
2022/06/17 03:48:58;;;;;;;7.10;5.78;;;15.70;99.90;;;;;;5012087;28;20099;-54
2022/06/17 03:51:26;;;;;;;7.32;5.97;;;15.70;99.90;;;;;;5013071;28;20803;-54
2022/06/17 03:53:55;;;;;;;6.68;5.55;;;15.70;99.90;;;;;;5012909;28;20056;-53
2022/06/17 03:56:32;;;;;;;8.65;5.45;;;15.70;99.90;;;;;;5013044;28;20147;-53
2022/06/17 03:59:04;;;;;;;6.68;5.05;;;15.70;99.90;;;;;;5012863;28;20846;-54
2022/06/17 04:01:43;;;;;;;9.30;6.28;;;15.80;99.90;;;;;;5031321;28;20041;-53
2022/06/17 04:04:20;;;;;;;9.20;5.25;;;15.80;99.90;;;;;;5034984;28;20048;-54
2022/06/17 04:06:53;;;;;;;6.68;5.30;;;15.90;99.90;;;;;;5035983;28;20045;-52
2022/06/17 04:09:27;;;;;;;;;;;15.90;99.90;;;;;;5036486;28;20051;-52
2022/06/17 04:12:01;;;;;;;11.50;6.10;;;15.90;99.90;;;;;;5052573;28;19956;-52
2022/06/17 04:15:08;;;;;;;9.15;6.28;;;16.00;99.90;;;;;;5036175;28;20052;-54
2022/06/17 04:17:45;;;;;;;6.88;5.78;;;16.10;99.90;;;;;;5035717;28;20130;-53
2022/06/17 04:20:33;;;;;;;7.75;5.35;;;16.10;99.90;;;;;;5036226;28;20041;-51
2022/06/17 04:23:12;;;;;;;10.75;6.20;;;16.20;99.90;;;;;;5036191;28;20052;-51
2022/06/17 04:26:09;;;;;;;8.73;6.13;;;16.30;99.90;;;;;;5036114;28;20330;-52
2022/06/17 04:28:38;;;;;;;;;;;16.40;99.90;;;;;;5036254;28;20052;-53
2022/06/17 04:31:10;;;;;;;7.82;6.53;;;16.40;99.90;;;;;;5036232;28;19921;-53
2022/06/17 04:33:46;;;;;;;15.75;6.63;;;16.50;99.90;;;;;;5019608;28;20049;-53
2022/06/17 04:36:20;;;;;;;7.80;5.78;;;16.60;99.90;;;;;;5036069;28;20140;-54
2022/06/17 04:38:53;;;;;;;8.90;5.88;;;16.70;99.90;;;;;;5035372;28;20045;-54
2022/06/17 04:41:39;;;;;;;10.30;5.68;;;16.70;99.90;;;;;;5036054;28;20841;-54
2022/06/17 04:44:13;;;;;;;5.93;4.97;;;16.80;99.90;;;;;;5032036;28;20099;-52
2022/06/17 04:46:49;;;;;;;7.93;5.00;;;16.80;99.90;;;;;;5033182;28;20047;-54
2022/06/17 04:49:28;;;;;;;9.95;5.72;;;16.90;99.90;;;;;;5034727;28;20157;-54
2022/06/17 04:52:11;;;;;;;7.47;5.70;;;16.90;99.90;;;;;;5036279;28;20068;-54
2022/06/17 04:54:40;;;;;;;7.45;5.75;;;17.00;99.90;;;;;;5035675;28;20475;-52
2022/06/17 04:57:31;;;;;;;7.40;5.70;;;17.00;99.90;;;;;;5022257;28;20044;-53
2022/06/17 05:00:18;;;;;;;8.27;5.30;;;17.00;99.90;;;;;;5034674;28;20041;-53
2022/06/17 05:02:47;;;;;;;7.05;5.18;;;17.00;99.90;;;;;;5036093;28;20569;-54
2022/06/17 05:05:35;;;;;;;20.17;6.70;;;17.10;99.90;;;;;;5034808;28;21043;-54
2022/06/17 05:08:14;;;;;;;7.68;5.38;;;17.10;99.90;;;;;;5037185;28;20056;-54
2022/06/17 05:10:48;;;;;;;6.15;5.55;;;17.20;99.90;;;;;;5035165;28;20054;-54
2022/06/17 05:13:27;;;;;;;12.10;5.28;;;17.30;99.90;;;;;;5036914;28;20106;-51
2022/06/17 05:15:57;;;;;;;9.85;5.90;;;17.40;99.90;;;;;;5034413;28;20053;-54
2022/06/17 05:18:24;;;;;;;12.27;6.05;;;17.50;99.90;;;;;;5034220;28;20049;-54
2022/06/17 05:21:02;;;;;;;6.85;5.07;;;17.60;99.90;;;;;;5034648;28;20153;-51
2022/06/17 05:23:29;;;;;;;9.45;6.32;;;17.70;99.90;;;;;;5036566;28;20446;-54
2022/06/17 05:25:57;;;;;;;6.72;5.78;;;17.80;99.90;;;;;;5035120;28;20037;-54
2022/06/17 05:28:25;;;;;;;7.50;5.13;;;17.90;99.90;;;;;;5035439;28;20055;-51
2022/06/17 05:30:57;;;;;;;7.43;4.72;;;18.00;99.90;;;;;;5034491;28;20896;-53
2022/06/17 05:33:37;;;;;;;11.27;5.25;;;18.10;99.90;;;;;;5034615;28;20060;-54
2022/06/17 05:36:04;;;;;;;11.40;5.70;;;18.30;99.90;;;;;;5034998;28;20780;-53
2022/06/17 05:38:31;;;;;;;9.85;5.68;;;18.40;99.90;;;;;;5033971;28;20037;-54
2022/06/17 05:40:59;;;;;;;7.80;5.82;;;18.50;99.90;;;;;;5034641;28;20052;-53
2022/06/17 05:43:26;;;;;;;7.50;4.95;;;18.60;99.90;;;;;;5034782;28;20037;-55
2022/06/17 05:45:53;;;;;;;10.93;5.68;;;18.70;99.90;;;;;;5030107;28;20069;-54
2022/06/17 05:48:31;;;;;;;11.77;5.55;;;18.70;99.90;;;;;;5036341;28;20037;-54
2022/06/17 05:51:16;;;;;;;7.30;5.25;;;18.80;99.90;;;;;;5034105;28;20055;-54
2022/06/17 05:54:02;;;;;;;8.65;5.20;;;18.80;99.90;;;;;;5034280;28;20107;-52
2022/06/17 05:56:35;;;;;;;7.28;4.90;;;18.90;99.90;;;;;;5033792;28;20470;-54
2022/06/17 05:59:02;;;;;;;7.47;4.90;;;18.90;99.90;;;;;;5034007;28;20069;-53
2022/06/17 06:01:29;;;;;;;7.68;5.30;;;18.90;99.90;;;;;;5033459;28;20048;-68
2022/06/17 06:03:56;;;;;;;12.00;5.88;;;18.90;99.90;;;;;;5033753;28;20041;-66
2022/06/17 06:06:23;;;;;;;9.32;4.95;;;19.00;99.90;;;;;;5033800;28;20053;-66
2022/06/17 06:08:54;;;;;;;8.07;5.50;;;19.00;99.90;;;;;;5033692;28;20045;-66
2022/06/17 06:11:21;;;;;;;6.50;5.15;;;19.10;99.90;;;;;;5034142;28;20047;-68
2022/06/17 06:13:49;;;;;;;8.45;5.65;;;19.10;99.90;;;;;;5034288;28;20122;-66
2022/06/17 06:16:16;;;;;;;10.93;5.00;;;19.20;99.90;;;;;;5017271;28;20045;-67
2022/06/17 06:18:50;;;;;;;9.68;4.40;;;19.20;99.90;;;;;;5013397;28;20140;-65
2022/06/17 06:21:20;;;;;;;9.88;4.10;;;19.30;99.90;;;;;;5030026;28;20041;-67
2022/06/17 06:23:49;;;;;;;8.20;4.10;;;19.40;99.90;;;;;;5013189;28;20154;-67
2022/06/17 06:26:25;;;;;;;10.70;4.45;;;19.50;99.90;;;;;;5015351;28;20925;-66
2022/06/17 06:29:17;;;;;;;5.05;3.42;;;19.60;99.90;;;;;;5032904;28;20059;-62
2022/06/17 06:31:44;;;;;;;5.60;3.60;;;19.70;99.90;;;;;;5033754;28;20045;-66
2022/06/17 06:34:32;;;;;;;11.00;4.45;;;19.70;99.90;;;;;;5030173;28;20067;-66
2022/06/17 06:37:00;;;;;;;6.53;3.97;;;19.80;99.90;;;;;;5033257;28;20045;-65
2022/06/17 06:39:29;;;;;;;4.68;3.13;;;19.90;99.90;;;;;;5031253;28;20044;-65
2022/06/17 06:41:58;;;;;;;5.80;3.30;;;20.00;99.90;;;;;;5017221;28;20576;-68
2022/06/17 06:44:25;;;;;;;8.10;4.10;;;20.10;99.90;;;;;;5032733;28;20068;-66
2022/06/17 06:47:26;;;;;;;5.70;3.83;;;20.20;99.90;;;;;;5020604;28;20045;-67
2022/06/17 06:50:03;;;;;;;9.85;4.10;;;20.30;99.90;;;;;;5034861;28;20389;-68
2022/06/17 06:52:29;;;;;;;9.35;3.78;;;20.40;99.90;;;;;;5033089;28;20441;-66
2022/06/17 06:54:56;;;;;;;5.90;3.47;;;20.50;99.90;;;;;;5033642;28;20503;-65
2022/06/17 06:57:24;;;;;;;10.90;3.58;;;20.60;99.90;;;;;;5032778;28;20044;-66
2022/06/17 07:00:06;;;;;;;6.35;3.35;;;20.70;99.90;;;;;;5032914;28;20045;-65
2022/06/17 07:02:34;;;;;;;8.38;4.40;;;20.70;99.90;;;;;;5012947;28;20099;-64
2022/06/17 07:05:01;;;;;;;7.93;3.67;;;20.80;99.90;;;;;;5014150;28;20038;-64
2022/06/17 07:07:35;;;;;;;4.82;3.55;;;21.00;99.90;;;;;;5029086;28;20123;-65
2022/06/17 07:10:03;;;;;;;7.85;3.47;;;21.10;99.90;;;;;;5014675;28;20069;-64
2022/06/17 07:12:30;;;;;;;6.55;3.75;;;21.20;99.90;;;;;;5029945;28;20044;-66
2022/06/17 07:14:57;;;;;;;5.05;3.30;;;21.30;99.90;;;;;;5014160;28;20033;-64
2022/06/17 07:17:24;;;;;;;11.07;3.60;;;21.40;99.90;;;;;;5024124;28;20040;-64
2022/06/17 07:19:50;;;;;;;6.82;3.60;;;21.50;99.90;;;;;;5034125;28;20582;-64
2022/06/17 07:22:17;;;;;;;5.20;3.28;;;21.60;99.90;;;;;;5034680;28;20115;-65
2022/06/17 07:24:44;;;;;;;6.05;4.30;;;21.60;99.90;;;;;;5032566;28;20075;-65
2022/06/17 07:27:11;;;;;;;11.63;4.82;;;21.70;99.90;;;;;;5034149;28;20051;-65
2022/06/17 07:29:38;;;;;;;5.95;4.13;;;21.80;99.90;;;;;;5033550;28;20067;-65
2022/06/17 07:32:06;;;;;;;8.07;4.18;;;21.90;99.90;;;;;;5015344;28;20138;-65
2022/06/17 07:34:39;;;;;;;14.23;4.45;;;22.00;99.90;;;;;;5033826;28;20949;-66
2022/06/17 07:39:54;;;;;;;9.45;3.75;;;22.10;99.90;;;;;;5033591;28;20048;-64
2022/06/17 07:42:23;;;;;;;15.32;5.07;;;22.20;99.90;;;;;;5029441;28;20049;-64
2022/06/17 07:44:51;;;;;;;14.45;3.90;;;22.20;99.70;;;;;;5020365;28;20478;-66
2022/06/17 07:47:20;;;;;;;15.32;4.65;;;22.30;99.20;;;;;;5022059;28;20056;-65
2022/06/17 07:49:47;;;;;;;10.32;4.68;;;22.30;99.50;;;;;;5033042;28;20045;-66
2022/06/17 07:52:14;;;;;;;4.00;3.58;;;22.40;99.90;;;;;;5037963;28;20041;-63
2022/06/17 07:54:42;;;;;;;6.38;4.45;;;22.40;98.50;;;;;;5037826;28;20084;-65
2022/06/17 07:57:11;;;;;;;8.93;4.35;;;22.50;98.70;;;;;;5037369;28;20041;-66
2022/06/17 07:59:39;;;;;;;6.85;3.60;;;22.50;97.70;;;;;;5038070;28;20063;-62
2022/06/17 08:02:06;;;;;;;17.92;4.35;;;22.50;98.00;;;;;;5039337;28;20864;-66
2022/06/17 08:04:35;;;;;;;6.75;3.35;;;22.60;99.00;;;;;;5038378;28;20056;-67
2022/06/17 08:07:04;;;;;;;5.05;4.20;;;22.70;98.10;;;;;;5038076;28;20610;-67
2022/06/17 08:09:31;;;;;;;9.13;3.85;;;22.70;96.00;;;;;;5036944;28;20041;-65
2022/06/17 08:11:58;;;;;;;12.68;4.22;;;22.80;98.00;;;;;;5036271;28;20119;-66
2022/06/17 08:14:25;;;;;;;7.57;3.88;;;22.90;96.70;;;;;;5037240;28;20067;-64
2022/06/17 08:16:52;;;;;;;6.95;3.83;;;23.00;96.10;;;;;;5035884;28;20048;-68
2022/06/17 08:19:20;;;;;;;7.45;3.70;;;23.20;99.20;;;;;;5036251;28;20040;-66
2022/06/17 08:21:47;;;;;;;5.72;3.53;;;23.40;99.50;;;;;;5037976;28;20570;-65
2022/06/17 08:24:29;;;;;;;7.35;3.53;;;23.60;93.90;;;;;;5037746;28;20136;-67
2022/06/17 08:26:56;;;;;;;5.93;3.45;;;23.90;92.60;;;;;;5037216;28;20130;-66
2022/06/17 08:29:26;;;;;;;8.43;3.67;;;24.00;93.00;;;;;;5037097;28;20051;-67
2022/06/17 08:34:58;;;;;;;8.57;3.83;;;24.50;90.70;;;;;;5037848;28;20044;-64
2022/06/17 08:37:26;;;;;;;8.75;4.15;;;24.70;83.70;;;;;;5037391;28;20069;-66
2022/06/17 08:39:53;;;;;;;9.77;3.47;;;24.80;81.50;;;;;;5037836;28;21134;-67
2022/06/17 08:42:25;;;;;;;9.20;4.13;;;25.00;82.70;;;;;;5037091;28;20506;-66
2022/06/17 08:45:12;;;;;;;7.65;3.92;;;25.10;84.80;;;;;;5036329;28;20052;-67
2022/06/17 08:47:39;;;;;;;7.65;3.35;;;25.40;81.50;;;;;;5034853;28;20430;-65
2022/06/17 08:50:35;;;;;;;7.68;4.25;;;25.70;76.30;;;;;;5035256;28;20044;-69
2022/06/17 08:53:30;;;;;;;11.50;4.90;;;25.90;72.10;;;;;;5037274;28;20056;-64
2022/06/17 08:56:32;;;;;;;9.05;4.22;;;26.10;67.10;;;;;;5037566;28;20037;-64
2022/06/17 08:59:34;;;;;;;11.43;3.88;;;26.20;64.60;;;;;;5036320;28;20045;-66
2022/06/17 09:02:20;;;;;;;7.75;3.22;;;26.30;64.50;;;;;;5049787;28;20036;-66
2022/06/17 09:05:19;;;;;;;8.75;3.38;;;26.50;59.00;;;;;;5056496;28;20033;-64
2022/06/17 09:08:05;;;;;;;4.25;2.58;;;26.60;59.90;;;;;;5057207;28;20051;-66
2022/06/17 09:10:57;;;;;;;15.40;3.28;;;26.90;60.90;;;;;;5055572;28;20044;-66
2022/06/17 09:13:49;;;;;;;5.15;2.78;;;27.10;59.20;;;;;;5056048;28;20059;-66
2022/06/17 09:16:23;;;;;;;9.52;2.70;;;27.30;56.80;;;;;;5055759;28;20044;-66
2022/06/17 09:18:59;;;;;;;7.97;3.55;;;27.60;54.90;;;;;;5014835;28;20525;-65
2022/06/17 09:21:46;;;;;;;9.20;3.33;;;27.70;57.30;;;;;;5015592;28;20049;-66
2022/06/17 09:24:19;;;;;;;4.15;2.17;;;27.80;54.30;;;;;;5017006;28;20046;-66
2022/06/17 09:26:58;;;;;;;7.00;2.40;;;27.90;50.20;;;;;;5020568;28;20418;-65
2022/06/17 09:29:44;;;;;;;8.43;2.50;;;28.10;49.00;;;;;;5032789;28;20048;-65
2022/06/17 09:32:17;;;;;;;3.72;2.35;;;28.30;46.70;;;;;;5034499;28;20122;-66
2022/06/17 09:35:05;;;;;;;3.63;2.50;;;28.50;48.80;;;;;;5036184;28;20120;-66
2022/06/17 09:37:39;;;;;;;6.07;2.58;;;28.60;49.80;;;;;;5035529;28;20114;-66
2022/06/17 09:40:08;;;;;;;5.45;1.83;;;28.70;46.00;;;;;;5035246;28;20422;-67
2022/06/17 09:42:55;;;;;;;9.40;3.22;;;28.80;45.10;;;;;;5035185;28;20036;-65
2022/06/17 09:45:32;;;;;;;3.88;2.45;;;28.80;46.70;;;;;;5034244;28;20127;-64
2022/06/17 09:48:11;;;;;;;6.28;2.33;;;28.90;45.50;;;;;;5034513;28;20033;-66
2022/06/17 09:50:46;;;;;;;4.35;1.83;;;28.90;45.10;;;;;;5033574;28;20140;-68
2022/06/17 09:53:28;;;;;;;8.88;2.13;;;28.90;42.80;;;;;;5035132;28;20041;-66
2022/06/17 09:56:11;;;;;;;4.32;1.73;;;29.10;41.80;;;;;;5035836;28;20044;-64
2022/06/17 09:58:54;;;;;;;2.33;1.90;;;29.10;42.40;;;;;;5034796;28;20130;-66
2022/06/17 10:01:24;;;;;;;9.18;2.47;;;29.20;42.50;;;;;;5033965;28;20055;-67
2022/06/17 10:03:51;;;;;;;9.30;2.50;;;29.30;41.90;;;;;;5033222;28;20053;-66
2022/06/17 10:07:19;;;;;;;5.47;2.47;;;29.30;44.10;;;;;;5035303;28;20056;-67
2022/06/17 10:10:12;;;;;;;2.40;2.00;;;29.30;44.70;;;;;;4956289;28;20195;-67
2022/06/17 10:13:01;;;;;;;8.13;2.70;;;29.40;44.50;;;;;;4973333;28;20077;-65
2022/06/17 10:18:31;;;;;;;5.13;2.08;;;29.40;43.70;;;;;;5032043;28;20063;-64
2022/06/17 10:19:08;;;;;;;5.18;2.25;;;29.40;44.10;;;;;;5035038;28;20111;-64
2022/06/17 10:22:15;;;;;;;6.32;2.03;;;29.40;42.40;;;;;;5034222;28;20048;-64
2022/06/17 10:24:51;;;;;;;10.88;2.25;;;29.40;43.10;;;;;;5011724;28;20056;-67
2022/06/17 10:27:27;;;;;;;6.18;2.53;;;29.60;42.80;;;;;;5032711;28;20051;-67
2022/06/17 10:30:20;;;;;;;4.13;2.25;;;29.60;44.60;;;;;;5034840;28;20551;-67
2022/06/17 10:32:51;;;;;;;5.97;2.05;;;29.50;43.30;;;;;;5034576;28;20041;-66
2022/06/17 10:35:24;;;;;;;6.10;2.60;;;29.50;40.20;;;;;;5034964;28;20045;-66
2022/06/17 10:37:51;;;;;;;11.00;2.63;;;29.40;45.50;;;;;;5032912;28;20045;-65
2022/06/17 10:40:24;;;;;;;11.02;2.30;;;29.40;45.10;;;;;;5032732;28;20041;-65
2022/06/17 10:42:55;;;;;;;3.70;2.67;;;29.30;43.70;;;;;;5032564;28;20045;-65
2022/06/17 10:45:22;;;;;;;4.43;2.53;;;29.40;42.20;;;;;;5032241;28;20623;-67
2022/06/17 10:48:18;;;;;;;6.28;2.42;;;29.40;42.90;;;;;;5033310;28;20455;-64
2022/06/17 10:50:45;;;;;;;6.43;2.15;;;29.40;41.40;;;;;;5032490;28;20234;-63
2022/06/17 10:53:25;;;;;;;3.17;1.88;;;29.30;43.10;;;;;;5033188;28;20134;-65
2022/06/17 10:55:57;;;;;;;5.80;2.03;;;29.20;42.50;;;;;;5032544;28;20032;-64
2022/06/17 10:58:33;;;;;;;2.58;2.00;;;29.30;41.70;;;;;;5034560;28;20037;-64
2022/06/17 11:01:11;;;;;;;9.48;2.88;;;29.20;42.30;;;;;;5034048;28;20045;-63
2022/06/17 11:03:45;;;;;;;5.00;2.10;;;29.20;42.90;;;;;;5034263;28;20049;-64
2022/06/17 11:06:15;;;;;;;3.08;2.03;;;29.20;42.60;;;;;;5034505;28;20033;-64
2022/06/17 11:08:56;;;;;;;2.25;1.90;;;29.30;43.30;;;;;;5034677;28;20471;-64
2022/06/17 11:14:44;;;;;;;6.70;2.50;;;29.40;41.10;;;;;;5038347;28;20063;-64
2022/06/17 11:17:41;;;;;;;6.55;2.85;;;29.40;43.80;;;;;;5037918;28;20041;-66
2022/06/17 11:20:24;;;;;;;3.60;2.30;;;29.50;43.60;;;;;;5038017;28;20126;-65
2022/06/17 11:23:28;;;;;;;17.10;1.70;;;29.60;42.10;;;;;;5038246;28;20071;-64
2022/06/17 11:26:09;;;;;;;3.50;1.90;;;29.60;42.40;;;;;;5037035;28;20144;-63
2022/06/17 11:28:40;;;;;;;7.07;2.10;;;29.70;43.60;;;;;;5037639;28;20249;-65
2022/06/17 11:31:36;;;;;;;5.85;2.20;;;29.80;39.50;;;;;;5036897;28;20060;-65
2022/06/17 11:34:26;;;;;;;5.65;2.10;;;29.70;41.20;;;;;;5036420;28;20060;-66
2022/06/17 11:37:11;;;;;;;8.77;2.20;;;29.70;40.90;;;;;;5024726;28;20052;-65
2022/06/17 11:39:39;;;;;;;3.67;2.10;;;29.70;37.70;;;;;;5037251;28;20050;-64
2022/06/17 11:42:18;;;;;;;8.10;2.10;;;29.80;39.70;;;;;;5038003;28;20044;-63
2022/06/17 11:45:01;;;;;;;4.80;2.35;;;29.60;40.40;;;;;;5035125;28;20056;-63
2022/06/17 11:47:31;;;;;;;7.03;2.08;;;29.60;41.10;;;;;;5036952;28;20051;-64
2022/06/17 11:50:10;;;;;;;3.40;2.08;;;29.60;42.00;;;;;;5035123;28;20659;-66
2022/06/17 11:52:37;;;;;;;5.93;2.22;;;29.60;41.30;;;;;;5035446;28;20060;-63
2022/06/17 11:55:05;;;;;;;3.28;2.60;;;29.60;41.40;;;;;;5036735;28;20045;-65
2022/06/17 11:57:36;;;;;;;7.38;2.60;;;29.60;41.80;;;;;;5037561;28;20037;-65
2022/06/17 12:00:27;;;;;;;4.93;2.25;;;29.60;38.40;;;;;;5032027;28;20041;-66
2022/06/17 12:03:02;;;;;;;3.78;1.85;;;29.50;39.80;;;;;;5018442;28;20095;-65
2022/06/17 12:05:32;;;;;;;6.63;2.30;;;29.40;40.50;;;;;;5030588;28;20037;-67
2022/06/17 12:08:14;;;;;;;5.28;2.70;;;29.50;41.40;;;;;;5036666;28;20041;-64
2022/06/17 12:10:58;;;;;;;3.83;1.98;;;29.60;41.60;;;;;;5036150;28;20045;-66
2022/06/17 12:13:37;;;;;;;4.55;2.15;;;29.60;40.10;;;;;;5036963;28;20128;-66
2022/06/17 12:16:37;;;;;;;4.00;1.95;;;29.70;39.60;;;;;;5038026;28;20044;-66
2022/06/17 12:19:15;;;;;;;5.95;2.10;;;29.90;41.10;;;;;;5016736;28;20065;-64
2022/06/17 12:21:47;;;;;;;4.03;2.42;;;30.00;41.50;;;;;;5037572;28;20996;-65
2022/06/17 12:24:33;;;;;;;4.28;2.03;;;30.10;41.80;;;;;;5036018;28;20045;-66
2022/06/17 12:27:10;;;;;;;7.40;2.45;;;30.10;40.30;;;;;;5036657;28;20051;-66
2022/06/17 12:29:52;;;;;;;6.43;2.50;;;30.40;41.10;;;;;;5029135;28;20132;-66
2022/06/17 12:32:27;;;;;;;3.28;1.77;;;30.50;40.00;;;;;;5035739;28;20045;-65
2022/06/17 12:35:06;;;;;;;2.45;2.25;;;30.60;38.20;;;;;;5036367;28;20489;-64
2022/06/17 12:37:39;;;;;;;4.72;2.50;;;30.60;39.90;;;;;;5037203;28;20052;-67
2022/06/17 12:40:27;;;;;;;6.90;2.15;;;30.60;38.60;;;;;;5035933;28;20036;-68
2022/06/17 12:43:09;;;;;;;3.40;2.42;;;30.70;38.80;;;;;;5037647;28;20976;-67
2022/06/17 12:45:48;;;;;;;6.00;2.25;;;30.70;38.20;;;;;;5035184;28;20076;-65
2022/06/17 12:48:30;;;;;;;10.63;2.38;;;30.80;37.90;;;;;;5037351;28;20184;-69
2022/06/17 12:54:36;;;;;;;2.80;1.95;;;31.10;40.30;;;;;;5035120;28;20061;-64
2022/06/17 12:57:12;;;;;;;4.63;2.22;;;31.10;39.90;;;;;;5056764;28;20044;-64
2022/06/17 13:00:05;;;;;;;4.38;3.20;;;31.20;38.90;;;;;;5048614;28;20044;-65
2022/06/17 13:02:54;;;;;;;2.92;1.88;;;31.30;37.10;;;;;;5015917;28;20052;-64
2022/06/17 13:05:32;;;;;;;4.00;1.70;;;31.40;37.40;;;;;;5016580;28;20058;-67
2022/06/17 13:08:12;;;;;;;4.22;2.10;;;31.30;39.00;;;;;;5015418;28;20049;-67
2022/06/17 13:10:59;;;;;;;4.70;2.25;;;31.30;40.10;;;;;;5031186;28;20068;-68
2022/06/17 13:13:54;;;;;;;6.95;2.22;;;31.40;38.20;;;;;;5037066;28;20044;-65
2022/06/17 13:16:34;;;;;;;8.43;2.78;;;31.30;39.50;;;;;;5037016;28;20095;-64
2022/06/17 13:19:26;;;;;;;3.75;2.45;;;31.50;40.10;;;;;;5020200;28;20434;-66
2022/06/17 13:22:15;;;;;;;3.40;2.30;;;31.50;38.70;;;;;;5034662;28;20041;-64
2022/06/17 13:24:48;;;;;;;6.00;2.28;;;31.50;39.80;;;;;;5034865;28;20725;-64
2022/06/17 13:27:24;;;;;;;6.30;2.15;;;31.60;40.10;;;;;;5036106;28;20045;-64
2022/06/17 13:30:01;;;;;;;3.80;2.47;;;31.50;39.80;;;;;;5035094;28;20053;-66
2022/06/17 13:32:38;;;;;;;6.95;2.90;;;31.50;40.30;;;;;;5036640;28;20041;-63
2022/06/17 13:35:16;;;;;;;47.70;10.80;;;31.60;39.40;;;;;;5036156;28;20048;-64
2022/06/17 13:37:49;;;;;;;9.57;2.67;;;31.60;38.30;;;;;;5036523;28;20078;-66
2022/06/17 13:40:23;;;;;;;2.90;2.10;;;31.50;38.10;;;;;;5034943;28;20145;-63
2022/06/17 13:42:55;;;;;;;5.25;2.28;;;31.50;38.80;;;;;;5034013;28;20037;-64
2022/06/17 13:45:35;;;;;;;2.97;1.85;;;31.60;39.50;;;;;;5033084;28;20041;-66
2022/06/17 13:48:16;;;;;;;3.50;2.08;;;31.60;40.70;;;;;;5035655;28;20541;-64